sensor_id;sensor_type;location;lat;lon;timestamp;P1;durP1;ratioP1;P2;durP2;ratioP2
69854;SDS011;57146;48.140;16.304;2022-07-19T00:01:45;2.47;;;0.30;;
69854;SDS011;57146;48.140;16.304;2022-07-19T00:04:12;3.55;;;0.20;;
69854;SDS011;57146;48.140;16.304;2022-07-19T00:06:38;2.70;;;0.10;;
69854;SDS011;57146;48.140;16.304;2022-07-19T00:09:05;3.63;;;0.40;;
69854;SDS011;57146;48.140;16.304;2022-07-19T00:11:32;2.55;;;0.20;;
69854;SDS011;57146;48.140;16.304;2022-07-19T00:14:00;2.47;;;0.13;;
69854;SDS011;57146;48.140;16.304;2022-07-19T00:16:27;2.70;;;0.20;;
69854;SDS011;57146;48.140;16.304;2022-07-19T00:18:54;2.15;;;0.10;;
69854;SDS011;57146;48.140;16.304;2022-07-19T00:21:21;4.38;;;0.20;;
69854;SDS011;57146;48.140;16.304;2022-07-19T00:23:48;2.88;;;0.15;;
69854;SDS011;57146;48.140;16.304;2022-07-19T00:26:15;3.38;;;0.10;;
69854;SDS011;57146;48.140;16.304;2022-07-19T00:28:41;2.35;;;0.20;;
69854;SDS011;57146;48.140;16.304;2022-07-19T00:31:08;2.47;;;0.22;;
69854;SDS011;57146;48.140;16.304;2022-07-19T00:33:35;2.90;;;0.20;;
69854;SDS011;57146;48.140;16.304;2022-07-19T00:36:02;2.47;;;0.20;;
69854;SDS011;57146;48.140;16.304;2022-07-19T00:38:29;2.65;;;0.20;;
69854;SDS011;57146;48.140;16.304;2022-07-19T00:40:56;2.58;;;0.20;;
69854;SDS011;57146;48.140;16.304;2022-07-19T00:43:23;2.97;;;0.20;;
69854;SDS011;57146;48.140;16.304;2022-07-19T00:45:50;3.30;;;0.10;;
69854;SDS011;57146;48.140;16.304;2022-07-19T00:48:17;2.00;;;0.20;;
69854;SDS011;57146;48.140;16.304;2022-07-19T00:50:44;1.95;;;0.30;;
69854;SDS011;57146;48.140;16.304;2022-07-19T00:53:11;3.33;;;0.20;;
69854;SDS011;57146;48.140;16.304;2022-07-19T00:55:41;4.05;;;0.17;;
69854;SDS011;57146;48.140;16.304;2022-07-19T00:58:10;2.15;;;0.20;;
69854;SDS011;57146;48.140;16.304;2022-07-19T01:00:38;2.13;;;0.10;;
69854;SDS011;57146;48.140;16.304;2022-07-19T01:03:06;3.83;;;0.20;;
69854;SDS011;57146;48.140;16.304;2022-07-19T01:05:33;2.00;;;0.20;;
69854;SDS011;57146;48.140;16.304;2022-07-19T01:08:01;2.05;;;0.10;;
69854;SDS011;57146;48.140;16.304;2022-07-19T01:10:28;1.92;;;0.10;;
69854;SDS011;57146;48.140;16.304;2022-07-19T01:12:55;4.13;;;0.20;;
69854;SDS011;57146;48.140;16.304;2022-07-19T01:15:23;2.97;;;0.20;;
69854;SDS011;57146;48.140;16.304;2022-07-19T01:17:52;1.83;;;0.20;;
69854;SDS011;57146;48.140;16.304;2022-07-19T01:20:20;3.70;;;0.10;;
69854;SDS011;57146;48.140;16.304;2022-07-19T01:22:55;5.00;;;0.20;;
69854;SDS011;57146;48.140;16.304;2022-07-19T01:25:22;3.53;;;0.10;;
69854;SDS011;57146;48.140;16.304;2022-07-19T01:27:51;2.95;;;0.20;;
69854;SDS011;57146;48.140;16.304;2022-07-19T01:30:20;3.70;;;0.20;;
69854;SDS011;57146;48.140;16.304;2022-07-19T01:32:49;2.53;;;0.17;;
69854;SDS011;57146;48.140;16.304;2022-07-19T01:35:16;2.28;;;0.10;;
69854;SDS011;57146;48.140;16.304;2022-07-19T01:37:43;2.08;;;0.10;;
69854;SDS011;57146;48.140;16.304;2022-07-19T01:40:11;1.95;;;0.10;;
69854;SDS011;57146;48.140;16.304;2022-07-19T01:42:40;3.33;;;0.10;;
69854;SDS011;57146;48.140;16.304;2022-07-19T01:45:07;5.47;;;0.22;;
69854;SDS011;57146;48.140;16.304;2022-07-19T01:47:36;1.85;;;0.15;;
69854;SDS011;57146;48.140;16.304;2022-07-19T01:50:03;1.67;;;0.10;;
69854;SDS011;57146;48.140;16.304;2022-07-19T01:52:32;2.42;;;0.20;;
69854;SDS011;57146;48.140;16.304;2022-07-19T01:54:58;3.08;;;0.20;;
69854;SDS011;57146;48.140;16.304;2022-07-19T01:57:25;2.00;;;0.10;;
69854;SDS011;57146;48.140;16.304;2022-07-19T01:59:52;2.75;;;0.20;;
69854;SDS011;57146;48.140;16.304;2022-07-19T02:02:19;2.90;;;0.17;;
69854;SDS011;57146;48.140;16.304;2022-07-19T02:04:46;2.38;;;0.13;;
69854;SDS011;57146;48.140;16.304;2022-07-19T02:07:13;4.35;;;0.40;;
69854;SDS011;57146;48.140;16.304;2022-07-19T02:09:40;1.85;;;0.10;;
69854;SDS011;57146;48.140;16.304;2022-07-19T02:12:07;3.13;;;0.10;;
69854;SDS011;57146;48.140;16.304;2022-07-19T02:14:34;4.78;;;0.30;;
69854;SDS011;57146;48.140;16.304;2022-07-19T02:17:01;2.97;;;0.10;;
69854;SDS011;57146;48.140;16.304;2022-07-19T02:19:28;2.35;;;0.30;;
69854;SDS011;57146;48.140;16.304;2022-07-19T02:21:55;2.17;;;0.10;;
69854;SDS011;57146;48.140;16.304;2022-07-19T02:24:22;2.28;;;0.25;;
69854;SDS011;57146;48.140;16.304;2022-07-19T02:26:48;2.85;;;0.30;;
69854;SDS011;57146;48.140;16.304;2022-07-19T02:29:15;2.53;;;0.20;;
69854;SDS011;57146;48.140;16.304;2022-07-19T02:31:42;1.90;;;0.10;;
69854;SDS011;57146;48.140;16.304;2022-07-19T02:34:09;1.90;;;0.10;;
69854;SDS011;57146;48.140;16.304;2022-07-19T02:36:36;2.92;;;0.10;;
69854;SDS011;57146;48.140;16.304;2022-07-19T02:39:03;2.72;;;0.10;;
69854;SDS011;57146;48.140;16.304;2022-07-19T02:41:29;2.88;;;0.10;;
69854;SDS011;57146;48.140;16.304;2022-07-19T02:43:57;2.05;;;0.20;;
69854;SDS011;57146;48.140;16.304;2022-07-19T02:46:24;2.42;;;0.22;;
69854;SDS011;57146;48.140;16.304;2022-07-19T02:48:51;2.25;;;0.20;;
69854;SDS011;57146;48.140;16.304;2022-07-19T02:51:18;3.08;;;0.20;;
69854;SDS011;57146;48.140;16.304;2022-07-19T02:53:45;2.80;;;0.13;;
69854;SDS011;57146;48.140;16.304;2022-07-19T02:56:12;3.65;;;0.22;;
69854;SDS011;57146;48.140;16.304;2022-07-19T02:58:39;2.03;;;0.10;;
69854;SDS011;57146;48.140;16.304;2022-07-19T03:01:06;2.15;;;0.20;;
69854;SDS011;57146;48.140;16.304;2022-07-19T03:03:33;2.30;;;0.20;;
69854;SDS011;57146;48.140;16.304;2022-07-19T03:06:02;2.97;;;0.30;;
69854;SDS011;57146;48.140;16.304;2022-07-19T03:08:29;2.33;;;0.17;;
69854;SDS011;57146;48.140;16.304;2022-07-19T03:10:55;3.28;;;0.20;;
69854;SDS011;57146;48.140;16.304;2022-07-19T03:13:22;2.50;;;0.10;;
69854;SDS011;57146;48.140;16.304;2022-07-19T03:15:49;2.60;;;0.20;;
69854;SDS011;57146;48.140;16.304;2022-07-19T03:18:16;2.17;;;0.10;;
69854;SDS011;57146;48.140;16.304;2022-07-19T03:20:43;2.95;;;0.10;;
69854;SDS011;57146;48.140;16.304;2022-07-19T03:23:10;3.25;;;0.10;;
69854;SDS011;57146;48.140;16.304;2022-07-19T03:25:37;3.05;;;0.30;;
69854;SDS011;57146;48.140;16.304;2022-07-19T03:28:04;4.45;;;0.22;;
69854;SDS011;57146;48.140;16.304;2022-07-19T03:30:30;3.33;;;0.13;;
69854;SDS011;57146;48.140;16.304;2022-07-19T03:32:58;3.78;;;0.20;;
69854;SDS011;57146;48.140;16.304;2022-07-19T03:35:25;3.25;;;0.20;;
69854;SDS011;57146;48.140;16.304;2022-07-19T03:37:52;2.95;;;0.20;;
69854;SDS011;57146;48.140;16.304;2022-07-19T03:40:19;2.95;;;0.20;;
69854;SDS011;57146;48.140;16.304;2022-07-19T03:42:46;4.53;;;0.30;;
69854;SDS011;57146;48.140;16.304;2022-07-19T03:45:13;4.10;;;0.30;;
69854;SDS011;57146;48.140;16.304;2022-07-19T03:47:40;2.42;;;0.20;;
69854;SDS011;57146;48.140;16.304;2022-07-19T03:50:07;2.38;;;0.10;;
69854;SDS011;57146;48.140;16.304;2022-07-19T03:52:34;2.13;;;0.20;;
69854;SDS011;57146;48.140;16.304;2022-07-19T03:55:01;2.58;;;0.20;;
69854;SDS011;57146;48.140;16.304;2022-07-19T03:57:28;4.60;;;0.13;;
69854;SDS011;57146;48.140;16.304;2022-07-19T03:59:54;2.95;;;0.20;;
69854;SDS011;57146;48.140;16.304;2022-07-19T04:02:21;3.28;;;0.20;;
69854;SDS011;57146;48.140;16.304;2022-07-19T04:04:49;3.78;;;0.30;;
69854;SDS011;57146;48.140;16.304;2022-07-19T04:07:16;4.80;;;0.30;;
69854;SDS011;57146;48.140;16.304;2022-07-19T04:09:42;5.65;;;0.30;;
69854;SDS011;57146;48.140;16.304;2022-07-19T04:12:09;3.20;;;0.20;;
69854;SDS011;57146;48.140;16.304;2022-07-19T04:14:36;2.95;;;0.30;;
69854;SDS011;57146;48.140;16.304;2022-07-19T04:17:03;2.63;;;0.30;;
69854;SDS011;57146;48.140;16.304;2022-07-19T04:19:30;1.67;;;0.17;;
69854;SDS011;57146;48.140;16.304;2022-07-19T04:21:58;2.63;;;0.20;;
69854;SDS011;57146;48.140;16.304;2022-07-19T04:24:25;2.58;;;0.30;;
69854;SDS011;57146;48.140;16.304;2022-07-19T04:26:52;2.90;;;0.30;;
69854;SDS011;57146;48.140;16.304;2022-07-19T04:29:19;3.33;;;0.25;;
69854;SDS011;57146;48.140;16.304;2022-07-19T04:31:45;3.30;;;0.30;;
69854;SDS011;57146;48.140;16.304;2022-07-19T04:34:12;3.40;;;0.40;;
69854;SDS011;57146;48.140;16.304;2022-07-19T04:36:39;3.50;;;0.30;;
69854;SDS011;57146;48.140;16.304;2022-07-19T04:39:06;3.10;;;0.52;;
69854;SDS011;57146;48.140;16.304;2022-07-19T04:41:33;2.80;;;0.20;;
69854;SDS011;57146;48.140;16.304;2022-07-19T04:44:00;3.67;;;0.32;;
69854;SDS011;57146;48.140;16.304;2022-07-19T04:46:27;2.72;;;0.20;;
69854;SDS011;57146;48.140;16.304;2022-07-19T04:48:54;6.20;;;1.10;;
69854;SDS011;57146;48.140;16.304;2022-07-19T04:51:21;6.20;;;1.80;;
69854;SDS011;57146;48.140;16.304;2022-07-19T04:53:48;5.20;;;1.45;;
69854;SDS011;57146;48.140;16.304;2022-07-19T04:56:16;6.50;;;1.15;;
69854;SDS011;57146;48.140;16.304;2022-07-19T04:58:43;4.88;;;0.88;;
69854;SDS011;57146;48.140;16.304;2022-07-19T05:01:09;7.10;;;1.30;;
69854;SDS011;57146;48.140;16.304;2022-07-19T05:03:37;13.48;;;5.32;;
69854;SDS011;57146;48.140;16.304;2022-07-19T05:06:04;15.75;;;3.20;;
69854;SDS011;57146;48.140;16.304;2022-07-19T05:08:31;13.20;;;2.13;;
69854;SDS011;57146;48.140;16.304;2022-07-19T05:10:57;4.82;;;0.60;;
69854;SDS011;57146;48.140;16.304;2022-07-19T05:13:24;3.10;;;0.30;;
69854;SDS011;57146;48.140;16.304;2022-07-19T05:15:51;7.82;;;0.73;;
69854;SDS011;57146;48.140;16.304;2022-07-19T05:18:18;4.75;;;0.30;;
69854;SDS011;57146;48.140;16.304;2022-07-19T05:20:45;5.47;;;0.38;;
69854;SDS011;57146;48.140;16.304;2022-07-19T05:23:12;8.38;;;0.50;;
69854;SDS011;57146;48.140;16.304;2022-07-19T05:25:39;7.50;;;0.55;;
69854;SDS011;57146;48.140;16.304;2022-07-19T05:28:05;6.30;;;0.40;;
69854;SDS011;57146;48.140;16.304;2022-07-19T05:30:32;5.30;;;0.57;;
69854;SDS011;57146;48.140;16.304;2022-07-19T05:32:59;4.68;;;0.30;;
69854;SDS011;57146;48.140;16.304;2022-07-19T05:35:26;2.97;;;0.38;;
69854;SDS011;57146;48.140;16.304;2022-07-19T05:37:53;4.40;;;0.25;;
69854;SDS011;57146;48.140;16.304;2022-07-19T05:40:20;3.90;;;0.25;;
69854;SDS011;57146;48.140;16.304;2022-07-19T05:42:46;4.00;;;0.40;;
69854;SDS011;57146;48.140;16.304;2022-07-19T05:45:13;4.85;;;0.30;;
69854;SDS011;57146;48.140;16.304;2022-07-19T05:47:40;6.20;;;0.32;;
69854;SDS011;57146;48.140;16.304;2022-07-19T05:50:07;6.43;;;0.30;;
69854;SDS011;57146;48.140;16.304;2022-07-19T05:52:34;6.60;;;0.52;;
69854;SDS011;57146;48.140;16.304;2022-07-19T05:55:04;5.38;;;0.30;;
69854;SDS011;57146;48.140;16.304;2022-07-19T05:57:32;6.40;;;0.50;;
69854;SDS011;57146;48.140;16.304;2022-07-19T05:59:58;4.43;;;0.10;;
69854;SDS011;57146;48.140;16.304;2022-07-19T06:02:25;8.40;;;0.57;;
69854;SDS011;57146;48.140;16.304;2022-07-19T06:04:52;5.25;;;0.45;;
69854;SDS011;57146;48.140;16.304;2022-07-19T06:07:19;5.03;;;0.40;;
69854;SDS011;57146;48.140;16.304;2022-07-19T06:09:46;5.43;;;0.38;;
69854;SDS011;57146;48.140;16.304;2022-07-19T06:12:13;6.40;;;0.60;;
69854;SDS011;57146;48.140;16.304;2022-07-19T06:14:39;7.57;;;0.80;;
69854;SDS011;57146;48.140;16.304;2022-07-19T06:17:07;14.25;;;0.95;;
69854;SDS011;57146;48.140;16.304;2022-07-19T06:19:34;6.07;;;0.60;;
69854;SDS011;57146;48.140;16.304;2022-07-19T06:22:01;6.15;;;0.52;;
69854;SDS011;57146;48.140;16.304;2022-07-19T06:24:28;3.92;;;0.40;;
69854;SDS011;57146;48.140;16.304;2022-07-19T06:26:54;5.07;;;0.30;;
69854;SDS011;57146;48.140;16.304;2022-07-19T06:29:21;5.72;;;0.70;;
69854;SDS011;57146;48.140;16.304;2022-07-19T06:31:48;4.10;;;0.30;;
69854;SDS011;57146;48.140;16.304;2022-07-19T06:34:15;6.70;;;0.57;;
69854;SDS011;57146;48.140;16.304;2022-07-19T06:36:42;8.70;;;0.50;;
69854;SDS011;57146;48.140;16.304;2022-07-19T06:39:08;3.90;;;0.20;;
69854;SDS011;57146;48.140;16.304;2022-07-19T06:41:35;3.17;;;0.30;;
69854;SDS011;57146;48.140;16.304;2022-07-19T06:44:08;7.00;;;0.80;;
69854;SDS011;57146;48.140;16.304;2022-07-19T06:46:35;4.35;;;0.47;;
69854;SDS011;57146;48.140;16.304;2022-07-19T06:49:02;3.10;;;0.38;;
69854;SDS011;57146;48.140;16.304;2022-07-19T06:51:29;7.10;;;0.83;;
69854;SDS011;57146;48.140;16.304;2022-07-19T06:53:56;3.35;;;0.47;;
69854;SDS011;57146;48.140;16.304;2022-07-19T06:56:22;2.90;;;0.22;;
69854;SDS011;57146;48.140;16.304;2022-07-19T06:58:49;3.60;;;0.50;;
69854;SDS011;57146;48.140;16.304;2022-07-19T07:01:16;3.22;;;0.40;;
69854;SDS011;57146;48.140;16.304;2022-07-19T07:03:43;5.20;;;0.50;;
69854;SDS011;57146;48.140;16.304;2022-07-19T07:06:10;4.20;;;0.22;;
69854;SDS011;57146;48.140;16.304;2022-07-19T07:08:37;3.78;;;0.55;;
69854;SDS011;57146;48.140;16.304;2022-07-19T07:11:04;3.22;;;0.30;;
69854;SDS011;57146;48.140;16.304;2022-07-19T07:13:31;3.97;;;0.43;;
69854;SDS011;57146;48.140;16.304;2022-07-19T07:15:58;3.10;;;0.57;;
69854;SDS011;57146;48.140;16.304;2022-07-19T07:18:25;3.63;;;0.38;;
69854;SDS011;57146;48.140;16.304;2022-07-19T07:20:52;3.60;;;0.43;;
69854;SDS011;57146;48.140;16.304;2022-07-19T07:23:19;3.65;;;0.40;;
69854;SDS011;57146;48.140;16.304;2022-07-19T07:25:46;4.13;;;0.47;;
69854;SDS011;57146;48.140;16.304;2022-07-19T07:28:13;2.73;;;0.33;;
69854;SDS011;57146;48.140;16.304;2022-07-19T07:30:40;3.47;;;0.20;;
69854;SDS011;57146;48.140;16.304;2022-07-19T07:33:07;3.88;;;0.70;;
69854;SDS011;57146;48.140;16.304;2022-07-19T07:35:34;4.25;;;0.50;;
69854;SDS011;57146;48.140;16.304;2022-07-19T07:38:01;3.25;;;0.60;;
69854;SDS011;57146;48.140;16.304;2022-07-19T07:40:28;2.83;;;0.47;;
69854;SDS011;57146;48.140;16.304;2022-07-19T07:42:54;2.38;;;0.40;;
69854;SDS011;57146;48.140;16.304;2022-07-19T07:45:21;3.33;;;0.60;;
69854;SDS011;57146;48.140;16.304;2022-07-19T07:47:48;4.95;;;0.57;;
69854;SDS011;57146;48.140;16.304;2022-07-19T07:50:15;2.83;;;0.50;;
69854;SDS011;57146;48.140;16.304;2022-07-19T07:52:42;3.97;;;0.60;;
69854;SDS011;57146;48.140;16.304;2022-07-19T07:55:09;2.67;;;0.55;;
69854;SDS011;57146;48.140;16.304;2022-07-19T07:57:55;2.65;;;0.63;;
69854;SDS011;57146;48.140;16.304;2022-07-19T08:00:22;5.15;;;0.40;;
69854;SDS011;57146;48.140;16.304;2022-07-19T08:02:50;3.45;;;0.40;;
69854;SDS011;57146;48.140;16.304;2022-07-19T08:05:19;4.23;;;0.73;;
69854;SDS011;57146;48.140;16.304;2022-07-19T08:07:47;4.07;;;0.68;;
69854;SDS011;57146;48.140;16.304;2022-07-19T08:10:18;3.40;;;0.45;;
69854;SDS011;57146;48.140;16.304;2022-07-19T08:12:47;4.22;;;0.60;;
69854;SDS011;57146;48.140;16.304;2022-07-19T08:15:14;4.90;;;0.60;;
69854;SDS011;57146;48.140;16.304;2022-07-19T08:17:41;3.87;;;0.87;;
69854;SDS011;57146;48.140;16.304;2022-07-19T08:20:08;4.70;;;0.60;;
69854;SDS011;57146;48.140;16.304;2022-07-19T08:22:35;3.20;;;0.55;;
69854;SDS011;57146;48.140;16.304;2022-07-19T08:25:03;4.32;;;0.43;;
69854;SDS011;57146;48.140;16.304;2022-07-19T08:27:31;5.43;;;0.50;;
69854;SDS011;57146;48.140;16.304;2022-07-19T08:29:58;3.97;;;0.73;;
69854;SDS011;57146;48.140;16.304;2022-07-19T08:32:33;4.00;;;0.63;;
69854;SDS011;57146;48.140;16.304;2022-07-19T08:35:00;2.75;;;0.65;;
69854;SDS011;57146;48.140;16.304;2022-07-19T08:37:27;3.65;;;0.60;;
69854;SDS011;57146;48.140;16.304;2022-07-19T08:39:54;2.35;;;0.68;;
69854;SDS011;57146;48.140;16.304;2022-07-19T08:42:21;3.60;;;0.80;;
69854;SDS011;57146;48.140;16.304;2022-07-19T08:44:50;3.50;;;0.70;;
69854;SDS011;57146;48.140;16.304;2022-07-19T08:47:18;2.80;;;0.60;;
69854;SDS011;57146;48.140;16.304;2022-07-19T08:49:47;4.32;;;0.80;;
69854;SDS011;57146;48.140;16.304;2022-07-19T08:52:14;4.60;;;0.68;;
69854;SDS011;57146;48.140;16.304;2022-07-19T08:54:43;3.40;;;0.63;;
69854;SDS011;57146;48.140;16.304;2022-07-19T08:57:09;3.92;;;0.80;;
69854;SDS011;57146;48.140;16.304;2022-07-19T08:59:36;4.68;;;0.70;;
69854;SDS011;57146;48.140;16.304;2022-07-19T09:02:03;3.47;;;0.50;;
69854;SDS011;57146;48.140;16.304;2022-07-19T09:04:30;4.15;;;0.80;;
69854;SDS011;57146;48.140;16.304;2022-07-19T09:06:57;3.60;;;0.60;;
69854;SDS011;57146;48.140;16.304;2022-07-19T09:09:26;4.72;;;0.80;;
69854;SDS011;57146;48.140;16.304;2022-07-19T09:11:55;3.00;;;0.50;;
69854;SDS011;57146;48.140;16.304;2022-07-19T09:14:27;3.70;;;0.80;;
69854;SDS011;57146;48.140;16.304;2022-07-19T09:19:31;4.43;;;0.70;;
69854;SDS011;57146;48.140;16.304;2022-07-19T09:22:02;14.77;;;1.55;;
69854;SDS011;57146;48.140;16.304;2022-07-19T09:24:35;4.07;;;0.63;;
69854;SDS011;57146;48.140;16.304;2022-07-19T09:27:05;14.52;;;1.58;;
69854;SDS011;57146;48.140;16.304;2022-07-19T09:29:33;4.10;;;0.80;;
69854;SDS011;57146;48.140;16.304;2022-07-19T09:32:07;2.80;;;0.60;;
69854;SDS011;57146;48.140;16.304;2022-07-19T09:34:41;4.65;;;0.70;;
69854;SDS011;57146;48.140;16.304;2022-07-19T09:37:17;3.10;;;0.60;;
69854;SDS011;57146;48.140;16.304;2022-07-19T09:39:44;3.20;;;0.50;;
69854;SDS011;57146;48.140;16.304;2022-07-19T09:42:17;3.28;;;0.63;;
69854;SDS011;57146;48.140;16.304;2022-07-19T09:45:08;3.33;;;0.60;;
69854;SDS011;57146;48.140;16.304;2022-07-19T09:47:41;3.28;;;0.70;;
69854;SDS011;57146;48.140;16.304;2022-07-19T09:50:17;3.53;;;0.88;;
69854;SDS011;57146;48.140;16.304;2022-07-19T09:52:47;3.92;;;0.70;;
69854;SDS011;57146;48.140;16.304;2022-07-19T09:55:16;3.70;;;0.70;;
69854;SDS011;57146;48.140;16.304;2022-07-19T09:57:45;2.70;;;0.60;;
69854;SDS011;57146;48.140;16.304;2022-07-19T10:00:14;3.47;;;0.63;;
69854;SDS011;57146;48.140;16.304;2022-07-19T10:02:45;2.78;;;0.63;;
69854;SDS011;57146;48.140;16.304;2022-07-19T10:05:27;3.55;;;1.00;;
69854;SDS011;57146;48.140;16.304;2022-07-19T10:07:55;4.25;;;0.70;;
69854;SDS011;57146;48.140;16.304;2022-07-19T10:10:22;4.67;;;0.80;;
69854;SDS011;57146;48.140;16.304;2022-07-19T10:12:50;2.97;;;0.70;;
69854;SDS011;57146;48.140;16.304;2022-07-19T10:15:18;3.65;;;0.88;;
69854;SDS011;57146;48.140;16.304;2022-07-19T10:18:07;2.60;;;0.88;;
69854;SDS011;57146;48.140;16.304;2022-07-19T10:20:37;3.38;;;0.70;;
69854;SDS011;57146;48.140;16.304;2022-07-19T10:23:08;3.83;;;0.80;;
69854;SDS011;57146;48.140;16.304;2022-07-19T10:25:40;4.28;;;0.70;;
69854;SDS011;57146;48.140;16.304;2022-07-19T10:31:28;4.05;;;0.70;;
69854;SDS011;57146;48.140;16.304;2022-07-19T10:34:00;3.38;;;0.82;;
69854;SDS011;57146;48.140;16.304;2022-07-19T10:44:31;2.53;;;0.90;;
69854;SDS011;57146;48.140;16.304;2022-07-19T10:46:58;3.10;;;0.63;;
69854;SDS011;57146;48.140;16.304;2022-07-19T10:49:41;6.03;;;1.20;;
69854;SDS011;57146;48.140;16.304;2022-07-19T10:57:44;2.67;;;0.75;;
69854;SDS011;57146;48.140;16.304;2022-07-19T11:00:31;5.25;;;0.80;;
69854;SDS011;57146;48.140;16.304;2022-07-19T11:05:52;3.60;;;0.80;;
69854;SDS011;57146;48.140;16.304;2022-07-19T11:08:36;4.40;;;1.35;;
69854;SDS011;57146;48.140;16.304;2022-07-19T11:11:06;3.40;;;1.10;;
69854;SDS011;57146;48.140;16.304;2022-07-19T11:13:38;4.95;;;1.10;;
69854;SDS011;57146;48.140;16.304;2022-07-19T11:16:06;3.17;;;0.90;;
69854;SDS011;57146;48.140;16.304;2022-07-19T11:18:34;2.78;;;0.90;;
69854;SDS011;57146;48.140;16.304;2022-07-19T11:21:01;2.60;;;0.77;;
69854;SDS011;57146;48.140;16.304;2022-07-19T11:23:31;4.05;;;1.08;;
69854;SDS011;57146;48.140;16.304;2022-07-19T11:26:10;4.10;;;1.10;;
69854;SDS011;57146;48.140;16.304;2022-07-19T11:28:42;2.60;;;0.97;;
69854;SDS011;57146;48.140;16.304;2022-07-19T11:31:17;4.88;;;0.80;;
69854;SDS011;57146;48.140;16.304;2022-07-19T11:33:47;3.75;;;0.98;;
69854;SDS011;57146;48.140;16.304;2022-07-19T11:36:16;2.47;;;0.90;;
69854;SDS011;57146;48.140;16.304;2022-07-19T11:38:52;3.13;;;1.15;;
69854;SDS011;57146;48.140;16.304;2022-07-19T11:41:22;2.53;;;0.90;;
69854;SDS011;57146;48.140;16.304;2022-07-19T11:43:52;3.75;;;1.17;;
69854;SDS011;57146;48.140;16.304;2022-07-19T11:46:29;4.28;;;1.38;;
69854;SDS011;57146;48.140;16.304;2022-07-19T11:48:58;2.97;;;0.90;;
69854;SDS011;57146;48.140;16.304;2022-07-19T11:51:26;3.97;;;1.27;;
69854;SDS011;57146;48.140;16.304;2022-07-19T11:53:55;4.43;;;1.40;;
69854;SDS011;57146;48.140;16.304;2022-07-19T11:56:25;24.73;;;2.67;;
69854;SDS011;57146;48.140;16.304;2022-07-19T11:58:54;11.52;;;1.67;;
69854;SDS011;57146;48.140;16.304;2022-07-19T12:03:56;4.53;;;1.35;;
69854;SDS011;57146;48.140;16.304;2022-07-19T12:09:08;6.97;;;1.40;;
69854;SDS011;57146;48.140;16.304;2022-07-19T12:11:43;4.63;;;1.27;;
69854;SDS011;57146;48.140;16.304;2022-07-19T12:17:08;6.38;;;1.40;;
69854;SDS011;57146;48.140;16.304;2022-07-19T12:19:45;5.73;;;1.93;;
69854;SDS011;57146;48.140;16.304;2022-07-19T12:25:05;5.97;;;1.60;;
69854;SDS011;57146;48.140;16.304;2022-07-19T12:27:33;5.35;;;1.70;;
69854;SDS011;57146;48.140;16.304;2022-07-19T12:30:00;3.75;;;1.23;;
69854;SDS011;57146;48.140;16.304;2022-07-19T12:34:57;5.60;;;1.60;;
69854;SDS011;57146;48.140;16.304;2022-07-19T12:37:26;4.03;;;1.40;;
69854;SDS011;57146;48.140;16.304;2022-07-19T12:39:55;5.30;;;1.60;;
69854;SDS011;57146;48.140;16.304;2022-07-19T12:42:35;3.63;;;1.58;;
69854;SDS011;57146;48.140;16.304;2022-07-19T12:45:10;5.87;;;1.77;;
69854;SDS011;57146;48.140;16.304;2022-07-19T12:47:46;20.08;;;2.35;;
69854;SDS011;57146;48.140;16.304;2022-07-19T12:50:18;5.32;;;1.45;;
69854;SDS011;57146;48.140;16.304;2022-07-19T12:52:54;4.22;;;1.40;;
69854;SDS011;57146;48.140;16.304;2022-07-19T12:55:22;3.78;;;1.45;;
69854;SDS011;57146;48.140;16.304;2022-07-19T12:57:51;4.57;;;1.67;;
69854;SDS011;57146;48.140;16.304;2022-07-19T13:00:19;2.88;;;1.40;;
69854;SDS011;57146;48.140;16.304;2022-07-19T13:02:48;4.00;;;1.88;;
69854;SDS011;57146;48.140;16.304;2022-07-19T13:05:16;3.38;;;1.60;;
69854;SDS011;57146;48.140;16.304;2022-07-19T13:07:44;4.72;;;1.23;;
69854;SDS011;57146;48.140;16.304;2022-07-19T13:10:11;5.80;;;2.00;;
69854;SDS011;57146;48.140;16.304;2022-07-19T13:12:39;3.75;;;1.30;;
69854;SDS011;57146;48.140;16.304;2022-07-19T13:15:07;4.22;;;2.00;;
69854;SDS011;57146;48.140;16.304;2022-07-19T13:17:34;4.18;;;1.70;;
69854;SDS011;57146;48.140;16.304;2022-07-19T13:20:02;5.72;;;1.98;;
69854;SDS011;57146;48.140;16.304;2022-07-19T13:22:30;4.07;;;1.47;;
69854;SDS011;57146;48.140;16.304;2022-07-19T13:24:57;3.20;;;1.38;;
69854;SDS011;57146;48.140;16.304;2022-07-19T13:27:44;3.70;;;1.30;;
69854;SDS011;57146;48.140;16.304;2022-07-19T13:30:12;4.65;;;1.40;;
69854;SDS011;57146;48.140;16.304;2022-07-19T13:32:39;14.50;;;2.42;;
69854;SDS011;57146;48.140;16.304;2022-07-19T13:35:06;3.90;;;1.40;;
69854;SDS011;57146;48.140;16.304;2022-07-19T13:37:35;2.50;;;0.93;;
69854;SDS011;57146;48.140;16.304;2022-07-19T13:40:02;3.30;;;1.58;;
69854;SDS011;57146;48.140;16.304;2022-07-19T13:42:29;5.07;;;1.42;;
69854;SDS011;57146;48.140;16.304;2022-07-19T13:44:56;3.50;;;1.90;;
69854;SDS011;57146;48.140;16.304;2022-07-19T13:47:23;2.53;;;1.30;;
69854;SDS011;57146;48.140;16.304;2022-07-19T13:49:50;4.05;;;1.95;;
69854;SDS011;57146;48.140;16.304;2022-07-19T13:52:17;4.32;;;1.33;;
69854;SDS011;57146;48.140;16.304;2022-07-19T13:54:44;3.65;;;1.50;;
69854;SDS011;57146;48.140;16.304;2022-07-19T13:57:11;4.30;;;1.17;;
69854;SDS011;57146;48.140;16.304;2022-07-19T13:59:37;5.10;;;1.40;;
69854;SDS011;57146;48.140;16.304;2022-07-19T14:02:04;4.88;;;1.75;;
69854;SDS011;57146;48.140;16.304;2022-07-19T14:04:32;4.75;;;1.55;;
69854;SDS011;57146;48.140;16.304;2022-07-19T14:06:59;4.85;;;1.58;;
69854;SDS011;57146;48.140;16.304;2022-07-19T14:09:26;14.23;;;2.38;;
69854;SDS011;57146;48.140;16.304;2022-07-19T14:11:52;5.07;;;1.93;;
69854;SDS011;57146;48.140;16.304;2022-07-19T14:14:20;5.68;;;2.08;;
69854;SDS011;57146;48.140;16.304;2022-07-19T14:16:47;4.90;;;1.60;;
69854;SDS011;57146;48.140;16.304;2022-07-19T14:19:14;4.65;;;1.58;;
69854;SDS011;57146;48.140;16.304;2022-07-19T14:21:41;4.70;;;1.90;;
69854;SDS011;57146;48.140;16.304;2022-07-19T14:24:08;2.77;;;1.90;;
69854;SDS011;57146;48.140;16.304;2022-07-19T14:26:35;6.00;;;2.10;;
69854;SDS011;57146;48.140;16.304;2022-07-19T14:29:02;2.40;;;1.58;;
69854;SDS011;57146;48.140;16.304;2022-07-19T14:31:30;5.00;;;2.30;;
69854;SDS011;57146;48.140;16.304;2022-07-19T14:34:01;4.88;;;1.90;;
69854;SDS011;57146;48.140;16.304;2022-07-19T14:36:48;4.37;;;1.80;;
69854;SDS011;57146;48.140;16.304;2022-07-19T14:39:15;9.57;;;2.03;;
69854;SDS011;57146;48.140;16.304;2022-07-19T14:41:42;4.15;;;1.48;;
69854;SDS011;57146;48.140;16.304;2022-07-19T14:44:09;4.15;;;1.65;;
69854;SDS011;57146;48.140;16.304;2022-07-19T14:46:36;2.92;;;1.48;;
69854;SDS011;57146;48.140;16.304;2022-07-19T14:49:03;2.90;;;1.80;;
69854;SDS011;57146;48.140;16.304;2022-07-19T14:51:30;4.10;;;1.85;;
69854;SDS011;57146;48.140;16.304;2022-07-19T14:53:57;5.00;;;1.98;;
69854;SDS011;57146;48.140;16.304;2022-07-19T14:56:24;3.88;;;1.55;;
69854;SDS011;57146;48.140;16.304;2022-07-19T14:58:51;3.63;;;1.67;;
69854;SDS011;57146;48.140;16.304;2022-07-19T15:01:18;3.27;;;1.77;;
69854;SDS011;57146;48.140;16.304;2022-07-19T15:03:45;5.15;;;1.75;;
69854;SDS011;57146;48.140;16.304;2022-07-19T15:06:12;4.32;;;1.80;;
69854;SDS011;57146;48.140;16.304;2022-07-19T15:08:39;3.05;;;1.77;;
69854;SDS011;57146;48.140;16.304;2022-07-19T15:11:07;4.75;;;2.28;;
69854;SDS011;57146;48.140;16.304;2022-07-19T15:13:35;4.57;;;1.90;;
69854;SDS011;57146;48.140;16.304;2022-07-19T15:16:02;5.32;;;2.03;;